sensor_id;sensor_type;location;lat;lon;timestamp;P1;durP1;ratioP1;P2;durP2;ratioP2
55815;SDS011;41744;52.404;16.942;2023-10-13T00:01:18;19.90;;;8.35;;
55815;SDS011;41744;52.404;16.942;2023-10-13T00:03:44;18.30;;;8.40;;
55815;SDS011;41744;52.404;16.942;2023-10-13T00:06:10;26.98;;;8.73;;
55815;SDS011;41744;52.404;16.942;2023-10-13T00:08:36;19.98;;;8.48;;
55815;SDS011;41744;52.404;16.942;2023-10-13T00:11:04;23.73;;;9.23;;
55815;SDS011;41744;52.404;16.942;2023-10-13T00:13:30;20.90;;;8.27;;
55815;SDS011;41744;52.404;16.942;2023-10-13T00:16:07;20.77;;;9.32;;
55815;SDS011;41744;52.404;16.942;2023-10-13T00:18:35;23.17;;;9.27;;
55815;SDS011;41744;52.404;16.942;2023-10-13T00:21:10;18.60;;;8.75;;
55815;SDS011;41744;52.404;16.942;2023-10-13T00:23:39;24.67;;;10.15;;
55815;SDS011;41744;52.404;16.942;2023-10-13T00:26:17;22.70;;;10.05;;
55815;SDS011;41744;52.404;16.942;2023-10-13T00:28:43;29.52;;;11.07;;
55815;SDS011;41744;52.404;16.942;2023-10-13T00:31:12;25.67;;;11.77;;
55815;SDS011;41744;52.404;16.942;2023-10-13T00:33:39;30.40;;;12.77;;
55815;SDS011;41744;52.404;16.942;2023-10-13T00:36:12;32.55;;;13.02;;
55815;SDS011;41744;52.404;16.942;2023-10-13T00:38:44;33.92;;;14.07;;
55815;SDS011;41744;52.404;16.942;2023-10-13T00:41:17;27.58;;;12.88;;
55815;SDS011;41744;52.404;16.942;2023-10-13T00:43:58;33.42;;;13.43;;
55815;SDS011;41744;52.404;16.942;2023-10-13T00:46:32;38.38;;;13.23;;
55815;SDS011;41744;52.404;16.942;2023-10-13T00:48:59;27.10;;;12.45;;
55815;SDS011;41744;52.404;16.942;2023-10-13T00:51:26;27.45;;;12.13;;
55815;SDS011;41744;52.404;16.942;2023-10-13T00:54:05;30.77;;;12.32;;
55815;SDS011;41744;52.404;16.942;2023-10-13T00:56:41;31.98;;;11.50;;
55815;SDS011;41744;52.404;16.942;2023-10-13T00:59:15;29.27;;;11.57;;
55815;SDS011;41744;52.404;16.942;2023-10-13T01:01:41;28.90;;;12.10;;
55815;SDS011;41744;52.404;16.942;2023-10-13T01:04:09;24.25;;;12.13;;
55815;SDS011;41744;52.404;16.942;2023-10-13T01:06:37;27.85;;;11.00;;
55815;SDS011;41744;52.404;16.942;2023-10-13T01:09:07;25.20;;;11.15;;
55815;SDS011;41744;52.404;16.942;2023-10-13T01:11:45;23.63;;;10.35;;
55815;SDS011;41744;52.404;16.942;2023-10-13T01:14:13;26.42;;;11.20;;
55815;SDS011;41744;52.404;16.942;2023-10-13T01:16:44;24.38;;;10.48;;
55815;SDS011;41744;52.404;16.942;2023-10-13T01:19:11;26.17;;;10.73;;
55815;SDS011;41744;52.404;16.942;2023-10-13T01:21:38;27.15;;;10.82;;
55815;SDS011;41744;52.404;16.942;2023-10-13T01:24:07;28.95;;;10.68;;
55815;SDS011;41744;52.404;16.942;2023-10-13T01:26:36;24.70;;;10.82;;
55815;SDS011;41744;52.404;16.942;2023-10-13T01:29:07;23.58;;;9.90;;
55815;SDS011;41744;52.404;16.942;2023-10-13T01:31:43;24.73;;;10.02;;
55815;SDS011;41744;52.404;16.942;2023-10-13T01:34:13;22.08;;;8.43;;
55815;SDS011;41744;52.404;16.942;2023-10-13T01:36:44;21.33;;;9.18;;
55815;SDS011;41744;52.404;16.942;2023-10-13T01:39:10;21.02;;;8.32;;
55815;SDS011;41744;52.404;16.942;2023-10-13T01:41:41;23.08;;;8.98;;
55815;SDS011;41744;52.404;16.942;2023-10-13T01:44:08;21.02;;;9.10;;
55815;SDS011;41744;52.404;16.942;2023-10-13T01:46:36;21.00;;;8.30;;
55815;SDS011;41744;52.404;16.942;2023-10-13T01:49:02;21.00;;;8.80;;
55815;SDS011;41744;52.404;16.942;2023-10-13T01:51:29;21.33;;;9.52;;
55815;SDS011;41744;52.404;16.942;2023-10-13T01:53:55;25.05;;;9.35;;
55815;SDS011;41744;52.404;16.942;2023-10-13T01:56:24;20.77;;;9.25;;
55815;SDS011;41744;52.404;16.942;2023-10-13T01:58:54;19.85;;;8.63;;
55815;SDS011;41744;52.404;16.942;2023-10-13T02:01:20;18.55;;;8.82;;
55815;SDS011;41744;52.404;16.942;2023-10-13T02:03:53;19.65;;;8.95;;
55815;SDS011;41744;52.404;16.942;2023-10-13T02:06:28;23.33;;;8.55;;
55815;SDS011;41744;52.404;16.942;2023-10-13T02:08:58;18.38;;;7.88;;
55815;SDS011;41744;52.404;16.942;2023-10-13T02:11:29;19.10;;;8.27;;
55815;SDS011;41744;52.404;16.942;2023-10-13T02:13:55;17.58;;;8.13;;
55815;SDS011;41744;52.404;16.942;2023-10-13T02:16:22;21.77;;;9.15;;
55815;SDS011;41744;52.404;16.942;2023-10-13T02:18:50;19.75;;;9.48;;
55815;SDS011;41744;52.404;16.942;2023-10-13T02:21:16;16.75;;;8.93;;
55815;SDS011;41744;52.404;16.942;2023-10-13T02:23:43;25.98;;;10.20;;
55815;SDS011;41744;52.404;16.942;2023-10-13T02:26:24;24.48;;;9.73;;
55815;SDS011;41744;52.404;16.942;2023-10-13T02:28:59;22.23;;;9.82;;
55815;SDS011;41744;52.404;16.942;2023-10-13T02:31:33;24.20;;;9.73;;
55815;SDS011;41744;52.404;16.942;2023-10-13T02:34:00;19.75;;;8.48;;
55815;SDS011;41744;52.404;16.942;2023-10-13T02:36:31;21.27;;;9.88;;
55815;SDS011;41744;52.404;16.942;2023-10-13T02:39:14;25.92;;;8.95;;
55815;SDS011;41744;52.404;16.942;2023-10-13T02:41:51;21.05;;;9.48;;
55815;SDS011;41744;52.404;16.942;2023-10-13T02:44:18;21.38;;;8.55;;
55815;SDS011;41744;52.404;16.942;2023-10-13T02:46:56;24.02;;;9.27;;
55815;SDS011;41744;52.404;16.942;2023-10-13T02:49:24;19.23;;;8.50;;
55815;SDS011;41744;52.404;16.942;2023-10-13T02:51:51;21.48;;;8.77;;
55815;SDS011;41744;52.404;16.942;2023-10-13T02:54:18;17.20;;;8.18;;
55815;SDS011;41744;52.404;16.942;2023-10-13T02:56:45;22.38;;;9.07;;
55815;SDS011;41744;52.404;16.942;2023-10-13T02:59:21;21.83;;;8.75;;
55815;SDS011;41744;52.404;16.942;2023-10-13T03:01:59;23.70;;;9.23;;
55815;SDS011;41744;52.404;16.942;2023-10-13T03:04:25;25.88;;;9.23;;
55815;SDS011;41744;52.404;16.942;2023-10-13T03:06:52;20.77;;;8.75;;
55815;SDS011;41744;52.404;16.942;2023-10-13T03:09:18;17.77;;;7.90;;
55815;SDS011;41744;52.404;16.942;2023-10-13T03:11:47;20.60;;;8.30;;
55815;SDS011;41744;52.404;16.942;2023-10-13T03:14:14;19.83;;;7.82;;
55815;SDS011;41744;52.404;16.942;2023-10-13T03:17:09;17.83;;;7.88;;
55815;SDS011;41744;52.404;16.942;2023-10-13T03:19:43;20.20;;;8.05;;
55815;SDS011;41744;52.404;16.942;2023-10-13T03:22:20;14.65;;;6.90;;
55815;SDS011;41744;52.404;16.942;2023-10-13T03:24:55;18.02;;;7.10;;
55815;SDS011;41744;52.404;16.942;2023-10-13T03:27:25;17.38;;;7.35;;
55815;SDS011;41744;52.404;16.942;2023-10-13T03:30:04;16.65;;;6.90;;
55815;SDS011;41744;52.404;16.942;2023-10-13T03:32:35;12.95;;;5.82;;
55815;SDS011;41744;52.404;16.942;2023-10-13T03:35:08;18.42;;;6.80;;
55815;SDS011;41744;52.404;16.942;2023-10-13T03:37:52;17.73;;;5.88;;
55815;SDS011;41744;52.404;16.942;2023-10-13T03:40:18;18.98;;;6.82;;
55815;SDS011;41744;52.404;16.942;2023-10-13T03:42:44;14.27;;;6.40;;
55815;SDS011;41744;52.404;16.942;2023-10-13T03:45:23;14.70;;;5.68;;
55815;SDS011;41744;52.404;16.942;2023-10-13T03:47:50;14.27;;;6.10;;
55815;SDS011;41744;52.404;16.942;2023-10-13T03:50:19;11.07;;;6.22;;
55815;SDS011;41744;52.404;16.942;2023-10-13T03:53:07;13.27;;;5.57;;
55815;SDS011;41744;52.404;16.942;2023-10-13T03:55:38;15.48;;;6.05;;
55815;SDS011;41744;52.404;16.942;2023-10-13T03:58:04;14.27;;;5.47;;
55815;SDS011;41744;52.404;16.942;2023-10-13T04:00:31;15.40;;;6.07;;
55815;SDS011;41744;52.404;16.942;2023-10-13T04:02:58;20.02;;;6.32;;
55815;SDS011;41744;52.404;16.942;2023-10-13T04:05:27;15.90;;;6.47;;
55815;SDS011;41744;52.404;16.942;2023-10-13T04:08:03;20.02;;;6.30;;
55815;SDS011;41744;52.404;16.942;2023-10-13T04:10:47;15.43;;;6.05;;
55815;SDS011;41744;52.404;16.942;2023-10-13T04:13:16;12.10;;;6.50;;
55815;SDS011;41744;52.404;16.942;2023-10-13T04:16:01;17.58;;;7.68;;
55815;SDS011;41744;52.404;16.942;2023-10-13T04:18:40;17.25;;;7.53;;
55815;SDS011;41744;52.404;16.942;2023-10-13T04:21:32;25.60;;;7.88;;
55815;SDS011;41744;52.404;16.942;2023-10-13T04:24:21;17.88;;;7.93;;
55815;SDS011;41744;52.404;16.942;2023-10-13T04:27:22;22.70;;;8.85;;
55815;SDS011;41744;52.404;16.942;2023-10-13T04:30:05;22.48;;;8.05;;
55815;SDS011;41744;52.404;16.942;2023-10-13T04:32:34;27.33;;;9.43;;
55815;SDS011;41744;52.404;16.942;2023-10-13T04:35:04;22.58;;;8.95;;
55815;SDS011;41744;52.404;16.942;2023-10-13T04:37:39;23.50;;;9.77;;
55815;SDS011;41744;52.404;16.942;2023-10-13T04:40:26;25.95;;;8.85;;
55815;SDS011;41744;52.404;16.942;2023-10-13T04:43:00;19.63;;;8.23;;
55815;SDS011;41744;52.404;16.942;2023-10-13T04:45:42;22.50;;;8.73;;
55815;SDS011;41744;52.404;16.942;2023-10-13T04:48:19;18.67;;;8.13;;
55815;SDS011;41744;52.404;16.942;2023-10-13T04:50:48;23.70;;;9.18;;
55815;SDS011;41744;52.404;16.942;2023-10-13T04:53:37;19.35;;;8.77;;
55815;SDS011;41744;52.404;16.942;2023-10-13T04:56:22;21.40;;;9.13;;
55815;SDS011;41744;52.404;16.942;2023-10-13T04:59:08;19.40;;;8.45;;
55815;SDS011;41744;52.404;16.942;2023-10-13T05:01:43;23.27;;;8.73;;
55815;SDS011;41744;52.404;16.942;2023-10-13T05:04:34;20.60;;;9.15;;
55815;SDS011;41744;52.404;16.942;2023-10-13T05:07:20;23.60;;;8.95;;
55815;SDS011;41744;52.404;16.942;2023-10-13T05:10:05;23.75;;;10.00;;
55815;SDS011;41744;52.404;16.942;2023-10-13T05:12:50;24.83;;;10.20;;
55815;SDS011;41744;52.404;16.942;2023-10-13T05:15:57;26.02;;;10.15;;
55815;SDS011;41744;52.404;16.942;2023-10-13T05:18:41;25.45;;;10.40;;
55815;SDS011;41744;52.404;16.942;2023-10-13T05:21:25;25.58;;;11.88;;
55815;SDS011;41744;52.404;16.942;2023-10-13T05:24:10;26.58;;;11.70;;
55815;SDS011;41744;52.404;16.942;2023-10-13T05:26:54;29.42;;;12.25;;
55815;SDS011;41744;52.404;16.942;2023-10-13T05:29:39;27.90;;;13.15;;
55815;SDS011;41744;52.404;16.942;2023-10-13T05:32:24;24.30;;;12.13;;
55815;SDS011;41744;52.404;16.942;2023-10-13T05:35:09;30.90;;;12.98;;
55815;SDS011;41744;52.404;16.942;2023-10-13T05:37:54;32.20;;;12.63;;
55815;SDS011;41744;52.404;16.942;2023-10-13T05:40:38;30.77;;;12.98;;
55815;SDS011;41744;52.404;16.942;2023-10-13T05:43:22;34.20;;;12.45;;
55815;SDS011;41744;52.404;16.942;2023-10-13T05:46:07;27.60;;;12.60;;
55815;SDS011;41744;52.404;16.942;2023-10-13T05:49:01;28.25;;;12.18;;
55815;SDS011;41744;52.404;16.942;2023-10-13T05:51:28;28.08;;;11.23;;
55815;SDS011;41744;52.404;16.942;2023-10-13T05:53:58;23.35;;;11.13;;
55815;SDS011;41744;52.404;16.942;2023-10-13T05:56:42;29.38;;;11.27;;
55815;SDS011;41744;52.404;16.942;2023-10-13T05:59:27;31.60;;;11.40;;
55815;SDS011;41744;52.404;16.942;2023-10-13T06:02:14;32.50;;;11.80;;
55815;SDS011;41744;52.404;16.942;2023-10-13T06:05:05;28.48;;;11.80;;
55815;SDS011;41744;52.404;16.942;2023-10-13T06:07:51;31.27;;;11.38;;
55815;SDS011;41744;52.404;16.942;2023-10-13T06:10:36;31.23;;;11.18;;
55815;SDS011;41744;52.404;16.942;2023-10-13T06:13:21;34.33;;;12.38;;
55815;SDS011;41744;52.404;16.942;2023-10-13T06:16:06;36.22;;;11.43;;
55815;SDS011;41744;52.404;16.942;2023-10-13T06:18:50;35.00;;;12.00;;
55815;SDS011;41744;52.404;16.942;2023-10-13T06:21:35;35.45;;;12.82;;
55815;SDS011;41744;52.404;16.942;2023-10-13T06:24:19;39.08;;;12.95;;
55815;SDS011;41744;52.404;16.942;2023-10-13T06:27:04;38.10;;;13.30;;
55815;SDS011;41744;52.404;16.942;2023-10-13T06:29:48;34.78;;;12.82;;
55815;SDS011;41744;52.404;16.942;2023-10-13T06:32:14;32.67;;;12.25;;
55815;SDS011;41744;52.404;16.942;2023-10-13T06:34:41;33.40;;;13.07;;
55815;SDS011;41744;52.404;16.942;2023-10-13T06:37:11;39.22;;;12.57;;
55815;SDS011;41744;52.404;16.942;2023-10-13T06:40:09;43.60;;;13.88;;
55815;SDS011;41744;52.404;16.942;2023-10-13T06:42:51;40.20;;;13.90;;
55815;SDS011;41744;52.404;16.942;2023-10-13T06:45:18;42.75;;;12.82;;
55815;SDS011;41744;52.404;16.942;2023-10-13T06:47:46;37.25;;;12.68;;
55815;SDS011;41744;52.404;16.942;2023-10-13T06:50:12;36.55;;;13.55;;
55815;SDS011;41744;52.404;16.942;2023-10-13T06:52:42;45.67;;;14.10;;
55815;SDS011;41744;52.404;16.942;2023-10-13T06:55:08;39.85;;;13.88;;
55815;SDS011;41744;52.404;16.942;2023-10-13T06:57:36;36.83;;;13.15;;
55815;SDS011;41744;52.404;16.942;2023-10-13T07:00:08;38.35;;;13.23;;
55815;SDS011;41744;52.404;16.942;2023-10-13T07:02:44;39.22;;;14.07;;
55815;SDS011;41744;52.404;16.942;2023-10-13T07:05:11;41.20;;;14.32;;
55815;SDS011;41744;52.404;16.942;2023-10-13T07:07:39;41.72;;;13.30;;
55815;SDS011;41744;52.404;16.942;2023-10-13T07:10:09;46.30;;;14.43;;
55815;SDS011;41744;52.404;16.942;2023-10-13T07:12:35;38.80;;;13.15;;
55815;SDS011;41744;52.404;16.942;2023-10-13T07:15:02;45.78;;;13.43;;
55815;SDS011;41744;52.404;16.942;2023-10-13T07:17:43;38.53;;;12.73;;
55815;SDS011;41744;52.404;16.942;2023-10-13T07:20:10;37.53;;;13.10;;
55815;SDS011;41744;52.404;16.942;2023-10-13T07:22:50;35.97;;;13.23;;
55815;SDS011;41744;52.404;16.942;2023-10-13T07:25:29;35.47;;;13.32;;
55815;SDS011;41744;52.404;16.942;2023-10-13T07:28:00;36.92;;;12.23;;
55815;SDS011;41744;52.404;16.942;2023-10-13T07:30:28;32.28;;;11.90;;
55815;SDS011;41744;52.404;16.942;2023-10-13T07:32:56;37.47;;;13.43;;
55815;SDS011;41744;52.404;16.942;2023-10-13T07:35:24;35.53;;;12.63;;
55815;SDS011;41744;52.404;16.942;2023-10-13T07:37:52;31.65;;;12.00;;
55815;SDS011;41744;52.404;16.942;2023-10-13T07:40:18;36.58;;;12.80;;
55815;SDS011;41744;52.404;16.942;2023-10-13T07:43:07;40.83;;;13.75;;
55815;SDS011;41744;52.404;16.942;2023-10-13T07:45:38;34.28;;;13.05;;
55815;SDS011;41744;52.404;16.942;2023-10-13T07:48:08;34.78;;;12.10;;
55815;SDS011;41744;52.404;16.942;2023-10-13T07:50:43;35.85;;;12.77;;
55815;SDS011;41744;52.404;16.942;2023-10-13T07:53:10;32.30;;;11.85;;
55815;SDS011;41744;52.404;16.942;2023-10-13T07:55:48;36.75;;;13.30;;
55815;SDS011;41744;52.404;16.942;2023-10-13T07:58:21;37.00;;;12.32;;
55815;SDS011;41744;52.404;16.942;2023-10-13T08:00:50;35.95;;;13.52;;
55815;SDS011;41744;52.404;16.942;2023-10-13T08:03:32;43.00;;;13.02;;
55815;SDS011;41744;52.404;16.942;2023-10-13T08:06:16;36.05;;;13.02;;
55815;SDS011;41744;52.404;16.942;2023-10-13T08:08:43;40.78;;;13.55;;
55815;SDS011;41744;52.404;16.942;2023-10-13T08:11:09;35.20;;;12.60;;
55815;SDS011;41744;52.404;16.942;2023-10-13T08:13:48;31.55;;;13.60;;
55815;SDS011;41744;52.404;16.942;2023-10-13T08:16:19;38.13;;;13.25;;
55815;SDS011;41744;52.404;16.942;2023-10-13T08:18:51;37.88;;;13.88;;
55815;SDS011;41744;52.404;16.942;2023-10-13T08:21:20;40.55;;;14.48;;
55815;SDS011;41744;52.404;16.942;2023-10-13T08:23:50;39.70;;;15.15;;
55815;SDS011;41744;52.404;16.942;2023-10-13T08:26:19;39.95;;;13.77;;
55815;SDS011;41744;52.404;16.942;2023-10-13T08:28:55;40.03;;;14.13;;
55815;SDS011;41744;52.404;16.942;2023-10-13T08:31:21;36.45;;;12.90;;
55815;SDS011;41744;52.404;16.942;2023-10-13T08:33:49;35.42;;;13.80;;
55815;SDS011;41744;52.404;16.942;2023-10-13T08:36:15;44.55;;;14.75;;
55815;SDS011;41744;52.404;16.942;2023-10-13T08:38:55;35.58;;;13.80;;
55815;SDS011;41744;52.404;16.942;2023-10-13T08:41:22;35.30;;;13.13;;
55815;SDS011;41744;52.404;16.942;2023-10-13T08:43:49;31.50;;;13.45;;
55815;SDS011;41744;52.404;16.942;2023-10-13T08:46:16;34.72;;;13.40;;
55815;SDS011;41744;52.404;16.942;2023-10-13T08:48:58;36.53;;;14.15;;
55815;SDS011;41744;52.404;16.942;2023-10-13T08:51:42;35.85;;;13.23;;
55815;SDS011;41744;52.404;16.942;2023-10-13T08:54:18;32.00;;;13.13;;
55815;SDS011;41744;52.404;16.942;2023-10-13T08:56:46;28.92;;;12.68;;
55815;SDS011;41744;52.404;16.942;2023-10-13T08:59:19;31.15;;;12.02;;
55815;SDS011;41744;52.404;16.942;2023-10-13T09:02:11;37.15;;;13.23;;
55815;SDS011;41744;52.404;16.942;2023-10-13T09:04:44;31.65;;;13.38;;
55815;SDS011;41744;52.404;16.942;2023-10-13T09:07:10;33.05;;;13.18;;
55815;SDS011;41744;52.404;16.942;2023-10-13T09:09:47;30.20;;;13.55;;
55815;SDS011;41744;52.404;16.942;2023-10-13T09:14:50;29.77;;;13.50;;
55815;SDS011;41744;52.404;16.942;2023-10-13T09:17:25;31.05;;;13.52;;
55815;SDS011;41744;52.404;16.942;2023-10-13T09:19:59;31.33;;;13.85;;
55815;SDS011;41744;52.404;16.942;2023-10-13T09:22:44;27.17;;;12.80;;
55815;SDS011;41744;52.404;16.942;2023-10-13T09:27:59;26.35;;;12.80;;
55815;SDS011;41744;52.404;16.942;2023-10-13T09:30:25;27.65;;;12.55;;
55815;SDS011;41744;52.404;16.942;2023-10-13T09:33:03;24.85;;;11.32;;
55815;SDS011;41744;52.404;16.942;2023-10-13T09:35:43;25.90;;;12.95;;
55815;SDS011;41744;52.404;16.942;2023-10-13T09:38:14;28.25;;;11.77;;
55815;SDS011;41744;52.404;16.942;2023-10-13T09:40:41;28.48;;;12.57;;
55815;SDS011;41744;52.404;16.942;2023-10-13T09:43:22;30.02;;;11.70;;
55815;SDS011;41744;52.404;16.942;2023-10-13T09:45:48;25.08;;;10.95;;
55815;SDS011;41744;52.404;16.942;2023-10-13T09:48:36;21.73;;;10.85;;
55815;SDS011;41744;52.404;16.942;2023-10-13T09:51:09;23.33;;;11.05;;
55815;SDS011;41744;52.404;16.942;2023-10-13T09:53:37;22.73;;;10.57;;
55815;SDS011;41744;52.404;16.942;2023-10-13T09:56:07;22.30;;;10.52;;
55815;SDS011;41744;52.404;16.942;2023-10-13T09:58:55;22.27;;;11.15;;
55815;SDS011;41744;52.404;16.942;2023-10-13T10:01:26;20.17;;;10.50;;
55815;SDS011;41744;52.404;16.942;2023-10-13T10:04:06;22.33;;;10.60;;
55815;SDS011;41744;52.404;16.942;2023-10-13T10:06:39;20.02;;;10.23;;
55815;SDS011;41744;52.404;16.942;2023-10-13T10:09:17;22.52;;;10.50;;
55815;SDS011;41744;52.404;16.942;2023-10-13T10:14:16;17.67;;;9.13;;
55815;SDS011;41744;52.404;16.942;2023-10-13T10:19:24;14.90;;;7.68;;
55815;SDS011;41744;52.404;16.942;2023-10-13T10:22:00;19.58;;;8.60;;
55815;SDS011;41744;52.404;16.942;2023-10-13T10:24:30;16.85;;;8.30;;
55815;SDS011;41744;52.404;16.942;2023-10-13T10:26:56;18.15;;;8.32;;
55815;SDS011;41744;52.404;16.942;2023-10-13T10:29:22;15.73;;;7.20;;
55815;SDS011;41744;52.404;16.942;2023-10-13T10:31:48;14.98;;;7.57;;
55815;SDS011;41744;52.404;16.942;2023-10-13T10:34:15;15.00;;;7.45;;
55815;SDS011;41744;52.404;16.942;2023-10-13T10:36:53;15.57;;;6.57;;
55815;SDS011;41744;52.404;16.942;2023-10-13T10:39:19;14.43;;;6.45;;
55815;SDS011;41744;52.404;16.942;2023-10-13T10:42:06;12.60;;;6.68;;
55815;SDS011;41744;52.404;16.942;2023-10-13T10:44:40;15.07;;;6.38;;
55815;SDS011;41744;52.404;16.942;2023-10-13T10:47:11;12.00;;;5.50;;
55815;SDS011;41744;52.404;16.942;2023-10-13T10:49:44;10.63;;;5.53;;
55815;SDS011;41744;52.404;16.942;2023-10-13T10:52:10;11.45;;;4.78;;
55815;SDS011;41744;52.404;16.942;2023-10-13T10:54:43;10.45;;;4.78;;
55815;SDS011;41744;52.404;16.942;2023-10-13T10:57:10;9.48;;;4.95;;
55815;SDS011;41744;52.404;16.942;2023-10-13T10:59:39;9.70;;;5.15;;
55815;SDS011;41744;52.404;16.942;2023-10-13T11:02:06;10.70;;;5.30;;
55815;SDS011;41744;52.404;16.942;2023-10-13T11:04:34;9.45;;;5.25;;
55815;SDS011;41744;52.404;16.942;2023-10-13T11:07:05;10.77;;;5.07;;
55815;SDS011;41744;52.404;16.942;2023-10-13T11:09:33;9.75;;;4.90;;
55815;SDS011;41744;52.404;16.942;2023-10-13T11:14:39;10.52;;;5.60;;
55815;SDS011;41744;52.404;16.942;2023-10-13T11:17:05;9.90;;;5.50;;
55815;SDS011;41744;52.404;16.942;2023-10-13T11:19:44;14.18;;;5.85;;
55815;SDS011;41744;52.404;16.942;2023-10-13T11:22:11;9.95;;;5.53;;
55815;SDS011;41744;52.404;16.942;2023-10-13T11:24:54;9.30;;;5.03;;
55815;SDS011;41744;52.404;16.942;2023-10-13T11:27:20;11.25;;;4.97;;
55815;SDS011;41744;52.404;16.942;2023-10-13T11:30:02;9.45;;;5.30;;
55815;SDS011;41744;52.404;16.942;2023-10-13T11:32:31;9.30;;;5.40;;
55815;SDS011;41744;52.404;16.942;2023-10-13T11:34:57;10.57;;;5.32;;
55815;SDS011;41744;52.404;16.942;2023-10-13T11:37:23;10.20;;;5.15;;
55815;SDS011;41744;52.404;16.942;2023-10-13T11:40:03;8.45;;;4.85;;
55815;SDS011;41744;52.404;16.942;2023-10-13T11:42:37;9.82;;;5.15;;
55815;SDS011;41744;52.404;16.942;2023-10-13T11:45:09;9.15;;;5.25;;
55815;SDS011;41744;52.404;16.942;2023-10-13T11:47:55;9.68;;;5.60;;
55815;SDS011;41744;52.404;16.942;2023-10-13T11:50:25;9.80;;;5.15;;
55815;SDS011;41744;52.404;16.942;2023-10-13T11:52:59;9.77;;;5.72;;
55815;SDS011;41744;52.404;16.942;2023-10-13T11:55:25;11.45;;;5.05;;
55815;SDS011;41744;52.404;16.942;2023-10-13T11:57:52;8.50;;;5.15;;
55815;SDS011;41744;52.404;16.942;2023-10-13T12:00:18;11.30;;;5.70;;
55815;SDS011;41744;52.404;16.942;2023-10-13T12:03:03;9.02;;;5.20;;
55815;SDS011;41744;52.404;16.942;2023-10-13T12:05:47;9.55;;;5.80;;
55815;SDS011;41744;52.404;16.942;2023-10-13T12:08:36;9.80;;;5.10;;
55815;SDS011;41744;52.404;16.942;2023-10-13T12:11:14;12.20;;;5.10;;
55815;SDS011;41744;52.404;16.942;2023-10-13T12:13:55;9.93;;;5.75;;
55815;SDS011;41744;52.404;16.942;2023-10-13T12:16:21;11.77;;;5.45;;
55815;SDS011;41744;52.404;16.942;2023-10-13T12:18:47;9.50;;;5.25;;
55815;SDS011;41744;52.404;16.942;2023-10-13T12:21:20;9.07;;;5.40;;
55815;SDS011;41744;52.404;16.942;2023-10-13T12:23:46;9.38;;;5.35;;
55815;SDS011;41744;52.404;16.942;2023-10-13T12:26:13;8.63;;;5.55;;
55815;SDS011;41744;52.404;16.942;2023-10-13T12:28:45;9.98;;;5.00;;
55815;SDS011;41744;52.404;16.942;2023-10-13T12:31:18;9.25;;;4.93;;
55815;SDS011;41744;52.404;16.942;2023-10-13T12:33:52;8.30;;;4.90;;
55815;SDS011;41744;52.404;16.942;2023-10-13T12:36:18;9.98;;;5.30;;
55815;SDS011;41744;52.404;16.942;2023-10-13T12:38:44;9.23;;;5.40;;
55815;SDS011;41744;52.404;16.942;2023-10-13T12:41:14;10.32;;;5.05;;
55815;SDS011;41744;52.404;16.942;2023-10-13T12:43:58;10.75;;;4.80;;
55815;SDS011;41744;52.404;16.942;2023-10-13T12:46:44;9.45;;;5.35;;
55815;SDS011;41744;52.404;16.942;2023-10-13T12:49:28;9.55;;;5.20;;
55815;SDS011;41744;52.404;16.942;2023-10-13T12:52:21;8.55;;;5.30;;
55815;SDS011;41744;52.404;16.942;2023-10-13T12:54:59;11.00;;;5.90;;
55815;SDS011;41744;52.404;16.942;2023-10-13T12:57:32;16.25;;;5.50;;
55815;SDS011;41744;52.404;16.942;2023-10-13T12:59:58;9.02;;;5.40;;
55815;SDS011;41744;52.404;16.942;2023-10-13T13:02:24;8.35;;;5.22;;
55815;SDS011;41744;52.404;16.942;2023-10-13T13:04:51;8.43;;;5.05;;
55815;SDS011;41744;52.404;16.942;2023-10-13T13:07:22;8.63;;;5.00;;
55815;SDS011;41744;52.404;16.942;2023-10-13T13:09:54;8.52;;;5.03;;
55815;SDS011;41744;52.404;16.942;2023-10-13T13:12:23;12.25;;;5.78;;
55815;SDS011;41744;52.404;16.942;2023-10-13T13:14:50;12.30;;;5.18;;
55815;SDS011;41744;52.404;16.942;2023-10-13T13:17:20;9.52;;;5.47;;
55815;SDS011;41744;52.404;16.942;2023-10-13T13:19:46;8.43;;;5.15;;
55815;SDS011;41744;52.404;16.942;2023-10-13T13:22:12;10.23;;;5.30;;
55815;SDS011;41744;52.404;16.942;2023-10-13T13:24:42;8.52;;;5.25;;
55815;SDS011;41744;52.404;16.942;2023-10-13T13:27:13;8.98;;;5.47;;
55815;SDS011;41744;52.404;16.942;2023-10-13T13:29:43;10.57;;;5.47;;
55815;SDS011;41744;52.404;16.942;2023-10-13T13:32:09;8.40;;;5.20;;
55815;SDS011;41744;52.404;16.942;2023-10-13T13:34:49;8.32;;;4.90;;
55815;SDS011;41744;52.404;16.942;2023-10-13T13:37:31;10.10;;;5.40;;
55815;SDS011;41744;52.404;16.942;2023-10-13T13:39:57;11.88;;;5.93;;
55815;SDS011;41744;52.404;16.942;2023-10-13T13:42:38;7.88;;;5.32;;
55815;SDS011;41744;52.404;16.942;2023-10-13T13:45:11;12.07;;;5.18;;
55815;SDS011;41744;52.404;16.942;2023-10-13T13:47:40;8.98;;;5.55;;
55815;SDS011;41744;52.404;16.942;2023-10-13T13:50:06;11.50;;;5.25;;
55815;SDS011;41744;52.404;16.942;2023-10-13T13:52:39;8.43;;;5.30;;
55815;SDS011;41744;52.404;16.942;2023-10-13T13:55:11;11.90;;;5.90;;
55815;SDS011;41744;52.404;16.942;2023-10-13T13:57:42;14.93;;;5.38;;
55815;SDS011;41744;52.404;16.942;2023-10-13T14:00:10;10.68;;;5.32;;
55815;SDS011;41744;52.404;16.942;2023-10-13T14:02:47;9.18;;;5.30;;
55815;SDS011;41744;52.404;16.942;2023-10-13T14:05:16;14.10;;;5.65;;
55815;SDS011;41744;52.404;16.942;2023-10-13T14:07:43;8.32;;;5.07;;
55815;SDS011;41744;52.404;16.942;2023-10-13T14:10:14;9.27;;;5.10;;
55815;SDS011;41744;52.404;16.942;2023-10-13T14:12:56;10.25;;;5.35;;
55815;SDS011;41744;52.404;16.942;2023-10-13T14:15:31;12.63;;;5.90;;
55815;SDS011;41744;52.404;16.942;2023-10-13T14:18:04;9.68;;;5.50;;
55815;SDS011;41744;52.404;16.942;2023-10-13T14:20:32;9.38;;;5.72;;
55815;SDS011;41744;52.404;16.942;2023-10-13T14:23:04;14.70;;;5.75;;
55815;SDS011;41744;52.404;16.942;2023-10-13T14:25:32;8.82;;;5.72;;
55815;SDS011;41744;52.404;16.942;2023-10-13T14:28:03;12.32;;;6.32;;
55815;SDS011;41744;52.404;16.942;2023-10-13T14:30:29;12.60;;;5.40;;
55815;SDS011;41744;52.404;16.942;2023-10-13T14:32:56;9.18;;;5.40;;
55815;SDS011;41744;52.404;16.942;2023-10-13T14:35:23;9.13;;;5.80;;
55815;SDS011;41744;52.404;16.942;2023-10-13T14:37:51;11.02;;;5.97;;
55815;SDS011;41744;52.404;16.942;2023-10-13T14:40:17;9.63;;;5.88;;
55815;SDS011;41744;52.404;16.942;2023-10-13T14:42:46;10.60;;;5.75;;
55815;SDS011;41744;52.404;16.942;2023-10-13T14:45:12;11.02;;;6.10;;
55815;SDS011;41744;52.404;16.942;2023-10-13T14:47:41;9.38;;;5.53;;
55815;SDS011;41744;52.404;16.942;2023-10-13T14:50:08;12.15;;;5.78;;
55815;SDS011;41744;52.404;16.942;2023-10-13T14:52:47;11.48;;;5.57;;
55815;SDS011;41744;52.404;16.942;2023-10-13T14:55:13;11.25;;;6.18;;
55815;SDS011;41744;52.404;16.942;2023-10-13T14:57:47;12.98;;;6.45;;
55815;SDS011;41744;52.404;16.942;2023-10-13T15:00:13;10.95;;;5.43;;
55815;SDS011;41744;52.404;16.942;2023-10-13T15:02:39;10.45;;;5.55;;
55815;SDS011;41744;52.404;16.942;2023-10-13T15:05:11;12.55;;;6.10;;
55815;SDS011;41744;52.404;16.942;2023-10-13T15:07:41;10.80;;;5.53;;